Details From YBAS - Alice Springs
To YBDV - Birdsville
Flight Number -
Tags Generated
Created
Modified
Stats Distance 324 nm / 600 km
Max Altitude 0 ft / 0 m
Waypoints 3
Social Downloads 0
Likes 0
Share VATSIM

Download

Looking for another format? Having issues loading an existing format? Contact us
Advertisement - Login to hide

Notes

Generated

Route

YBAS BDVNM YBDV

ID Type Via Altitude Latitude Longitude Leg Dist Tot Dist Heading (true) Name
O YBAS APT - 0 ft / 0 m -23.79728˚ 133.88654˚ - 0 nm - -
BDVNM FIX - 0 ft / 0 m -25.88380˚ 139.33969˚ 322 nm 322 nm 114° / 112° -
O YBDV APT - 0 ft / 0 m -25.90387˚ 139.34334˚ 1 nm 323 nm 171° / 171° -

Altitude Profile

Advertisement - Login to hide

Weather


0- 5 10 15 20 25 30 35+ Temperature / ° C

Clouds and Precipitation
Forecast for 2017-12-18 18:00 UTC. Updated 2 hours ago

Ground ~20,000 ft ~40,000 ft Winds

YBAS

Details ICAO YBAS (ASP)
Name Alice Springs
Region Australia
Timezone Australia/Darwin (UTC+9.5)
Stats Elevation 1,789 ft / 545 m (AMSL)
Location -23.804452° 133.895220°
Runways 2
Magnetic Variation 4.597° E

METAR

YBAS 181500Z AUTO 35006KT 9999 // NCD 33/12 Q1006

Decode

TAF

TAF AMD YBAS 181124Z 1812/1912 32006KT CAVOK FM182300 29014KT CAVOK PROB30 TEMPO 1902/1912 VRB35G45KT 2000 TSRA BKN050 SCT080CB

Decode

Departure Runways

ID Width Length Bearing (true) Bearing (mag) Surface Threshold Offset Overrun Length
12 148 ft / 45 m 7,996 ft / 2,437 m 120.40° 115.80° Asphalt 0 ft / 0 m 0 ft / 0 m
17 59 ft / 18 m 3,729 ft / 1,137 m 178.24° 173.64° Asphalt 0 ft / 0 m 0 ft / 0 m
30 148 ft / 45 m 7,996 ft / 2,437 m 300.40° 295.80° Asphalt 0 ft / 0 m 0 ft / 0 m
35 59 ft / 18 m 3,729 ft / 1,137 m 358.24° 353.64° Asphalt 0 ft / 0 m 0 ft / 0 m

YBDV

Details ICAO YBDV (BVI)
Name Birdsville
Region Australia
Timezone Australia/Brisbane (UTC+10.0)
Stats Elevation 157 ft / 48 m (AMSL)
Location -25.895770° 139.346033°
Runways 2
Magnetic Variation 6.494° E

METAR

YBDV 181500Z AUTO 36013KT //// // ////// 36/08 Q1002

Decode

TAF

Not found

Destination Runways

ID Width Length Bearing (true) Bearing (mag) Surface Threshold Offset Overrun Length
03 131 ft / 40 m 4,143 ft / 1,263 m 39.62° 33.13° Dirt 0 ft / 0 m 0 ft / 0 m
14 98 ft / 30 m 5,696 ft / 1,736 m 148.89° 142.40° Asphalt 0 ft / 0 m 0 ft / 0 m
21 131 ft / 40 m 4,143 ft / 1,263 m 219.62° 213.13° Dirt 0 ft / 0 m 0 ft / 0 m
32 98 ft / 30 m 5,696 ft / 1,736 m 328.89° 322.40° Asphalt 0 ft / 0 m 0 ft / 0 m